Time;durP1;ratioP1;P1;durP2;ratioP2;P2;SDS_P1;SDS_P2;PMS_P1;PMS_P2;Temp;Humidity;BMP_temperature;BMP_pressure;BME280_temperature;BME280_humidity;BME280_pressure;Samples;Min_cycle;Max_cycle;Signal;HPM_P1;HPM_P2
2023/01/09 00:01:35;;;;;;;35.40;6.80;;;;;;;;;;5043960;28;21135;-62
2023/01/09 00:04:02;;;;;;;28.73;8.03;;;9.90;99.90;;;;;;5044990;28;20481;-61
2023/01/09 00:06:29;;;;;;;22.30;7.20;;;7.60;99.90;;;;;;5051555;28;21456;-61
2023/01/09 00:08:55;;;;;;;31.83;5.80;;;9.90;99.90;;;;;;5051144;28;20483;-62
2023/01/09 00:11:23;;;;;;;35.67;9.30;;;;;;;;;;5048368;28;20479;-61
2023/01/09 00:13:49;;;;;;;27.77;5.80;;;9.90;99.90;;;;;;5051978;28;20471;-61
2023/01/09 00:16:16;;;;;;;33.27;9.93;;;9.90;99.90;;;;;;5050423;28;20537;-61
2023/01/09 00:18:45;;;;;;;28.93;5.93;;;9.80;99.90;;;;;;5051829;28;20479;-62
2023/01/09 00:21:13;;;;;;;57.43;14.20;;;9.80;99.90;;;;;;5046608;28;20483;-62
2023/01/09 00:23:39;;;;;;;29.33;6.27;;;9.90;99.90;;;;;;5052635;28;20498;-62
2023/01/09 00:26:07;;;;;;;45.07;10.70;;;;;;;;;;5051667;28;20556;-62
2023/01/09 00:28:35;;;;;;;30.80;6.80;;;9.80;99.90;;;;;;5044683;28;20490;-62
2023/01/09 00:31:03;;;;;;;36.53;8.60;;;9.90;99.90;;;;;;5047255;28;20475;-62
2023/01/09 00:33:32;;;;;;;27.43;7.63;;;9.80;99.90;;;;;;5051886;28;20487;-62
2023/01/09 00:36:00;;;;;;;25.17;5.97;;;9.90;99.90;;;;;;5055530;28;20496;-61
2023/01/09 00:38:27;;;;;;;27.83;6.37;;;9.70;99.90;;;;;;5055148;28;20475;-62
2023/01/09 00:40:56;;;;;;;42.13;9.40;;;9.80;99.90;;;;;;5054139;28;20483;-62
2023/01/09 00:43:24;;;;;;;30.80;6.77;;;;;;;;;;5055631;28;21005;-62
2023/01/09 00:45:51;;;;;;;21.40;4.70;;;;;;;;;;5054989;28;20478;-61
2023/01/09 00:48:23;;;;;;;42.47;9.30;;;;;;;;;;5054913;28;21052;-62
2023/01/09 00:50:50;;;;;;;30.30;6.37;;;9.90;99.90;;;;;;5053387;28;20776;-61
2023/01/09 00:53:22;;;;;;;28.83;6.47;;;10.00;99.90;;;;;;5054917;28;20471;-61
2023/01/09 00:55:49;;;;;;;23.27;5.10;;;10.00;99.90;;;;;;5055605;28;20897;-61
2023/01/09 00:58:15;;;;;;;42.00;9.77;;;9.80;99.90;;;;;;5054777;28;21053;-62
2023/01/09 01:00:42;;;;;;;34.53;8.43;;;;;;;;;;5050929;28;20483;-62
2023/01/09 01:03:09;;;;;;;47.10;10.77;;;;;;;;;;5053619;28;20518;-62
2023/01/09 01:08:22;;;;;;;35.90;6.97;;;10.00;99.90;;;;;;5052481;28;20989;-61
2023/01/09 01:10:49;;;;;;;22.70;6.03;;;9.90;99.90;;;;;;5050659;28;20487;-61
2023/01/09 01:13:16;;;;;;;31.30;7.03;;;;;;;;;;5052930;28;20496;-62
2023/01/09 01:15:43;;;;;;;22.60;5.63;;;;;;;;;;5055258;28;20475;-61
2023/01/09 01:18:11;;;;;;;45.33;9.83;;;;;;;;;;5054610;28;20479;-62
2023/01/09 01:20:40;;;;;;;56.03;11.50;;;9.90;99.90;;;;;;5050306;28;20953;-62
2023/01/09 01:23:07;;;;;;;51.13;10.07;;;9.90;99.90;;;;;;5050635;28;20495;-62
2023/01/09 01:25:37;;;;;;;19.63;4.53;;;9.90;99.90;;;;;;5048616;28;21082;-61
2023/01/09 01:28:04;;;;;;;40.77;9.27;;;9.90;99.90;;;;;;5054341;28;20471;-61
2023/01/09 01:30:31;;;;;;;50.47;10.77;;;9.80;99.90;;;;;;5048755;28;20483;-62
2023/01/09 01:32:57;;;;;;;30.27;4.20;;;9.90;99.90;;;;;;5051583;28;20490;-62
2023/01/09 01:35:25;;;;;;;38.70;6.50;;;9.80;99.90;;;;;;5049929;28;20979;-62
2023/01/09 01:37:52;;;;;;;45.60;7.37;;;9.80;99.90;;;;;;5075973;28;20534;-61
2023/01/09 01:40:19;;;;;;;39.60;8.77;;;9.80;99.90;;;;;;5051243;28;20831;-61
2023/01/09 01:42:48;;;;;;;17.63;4.20;;;11.00;99.90;;;;;;5050344;28;20483;-61
2023/01/09 01:45:18;;;;;;;50.17;11.70;;;9.80;99.90;;;;;;5052944;28;20855;-61
2023/01/09 01:47:52;;;;;;;27.27;5.07;;;9.70;99.90;;;;;;5052002;28;20467;-61
2023/01/09 01:50:25;;;;;;;28.80;7.73;;;9.70;99.90;;;;;;5050404;28;20479;-61
2023/01/09 01:52:55;;;;;;;23.17;5.00;;;9.60;99.90;;;;;;5050693;28;20494;-61
2023/01/09 01:55:23;;;;;;;22.77;5.33;;;9.70;99.90;;;;;;5053583;28;20703;-61
2023/01/09 01:57:56;;;;;;;18.50;3.90;;;9.70;99.90;;;;;;5051516;28;20492;-61
2023/01/09 02:00:27;;;;;;;39.27;10.50;;;9.70;99.90;;;;;;5070046;28;20809;-61
2023/01/09 02:02:54;;;;;;;24.33;5.80;;;9.80;99.90;;;;;;5049281;28;20479;-61
2023/01/09 02:05:20;;;;;;;36.57;6.10;;;9.70;99.90;;;;;;5053004;28;20475;-61
2023/01/09 02:07:47;;;;;;;27.37;5.40;;;9.70;99.90;;;;;;5053318;28;20480;-61
2023/01/09 02:10:14;;;;;;;63.90;12.67;;;;;;;;;;5052651;28;20868;-61
2023/01/09 02:12:41;;;;;;;40.63;6.87;;;;;;;;;;5049304;28;20475;-61
2023/01/09 02:15:13;;;;;;;50.77;10.20;;;9.60;99.90;;;;;;5068264;28;20481;-61
2023/01/09 02:18:07;;;;;;;20.93;4.50;;;9.50;99.90;;;;;;5060099;28;20491;-61
2023/01/09 02:20:42;;;;;;;47.17;10.40;;;9.40;99.90;;;;;;5048623;28;20479;-61
2023/01/09 02:23:30;;;;;;;53.93;10.73;;;;;;;;;;5052024;28;21006;-60
2023/01/09 02:26:21;;;;;;;36.97;6.00;;;9.40;99.90;;;;;;5049021;28;20619;-61
2023/01/09 02:29:10;;;;;;;41.17;7.67;;;9.40;99.90;;;;;;5052977;28;20846;-60
2023/01/09 02:31:42;;;;;;;36.53;5.97;;;;;;;;;;5038417;28;20509;-61
2023/01/09 02:34:15;;;;;;;47.77;10.90;;;9.40;99.90;;;;;;5053337;28;20475;-60
2023/01/09 02:36:47;;;;;;;26.60;6.20;;;;;;;;;;5074326;28;20469;-61
2023/01/09 02:39:23;;;;;;;27.63;5.47;;;9.30;99.90;;;;;;5052116;28;20535;-61
2023/01/09 02:41:54;;;;;;;26.50;5.53;;;;;;;;;;5047400;28;20490;-61
2023/01/09 02:44:22;;;;;;;32.80;5.60;;;;;;;;;;5050950;28;20486;-61
2023/01/09 02:47:00;;;;;;;15.00;4.20;;;;;;;;;;5052759;28;20627;-61
2023/01/09 02:49:27;;;;;;;29.80;8.53;;;;;;;;;;5051736;28;20601;-60
2023/01/09 02:52:01;;;;;;;20.60;5.20;;;9.20;99.90;;;;;;5047470;28;20479;-61
2023/01/09 02:54:33;;;;;;;16.27;5.33;;;;;;;;;;5053898;28;20492;-61
2023/01/09 02:57:14;;;;;;;20.03;5.20;;;9.20;99.90;;;;;;5067774;28;21273;-61
2023/01/09 02:59:55;;;;;;;19.43;5.20;;;9.30;99.90;;;;;;5054165;28;20896;-61
2023/01/09 03:02:37;;;;;;;20.83;6.00;;;9.30;99.90;;;;;;5044014;28;20668;-61
2023/01/09 03:05:08;;;;;;;19.90;7.97;;;;;;;;;;5047829;28;20927;-61
2023/01/09 03:07:39;;;;;;;21.57;4.17;;;9.30;99.90;;;;;;5051697;28;20918;-61
2023/01/09 03:10:12;;;;;;;18.10;7.10;;;10.60;99.90;;;;;;5051259;28;20479;-61
2023/01/09 03:12:40;;;;;;;13.70;4.00;;;;;;;;;;5054916;28;20483;-61
2023/01/09 03:15:12;;;;;;;17.33;6.77;;;9.20;99.90;;;;;;5051128;28;20885;-61
2023/01/09 03:17:45;;;;;;;15.50;5.00;;;9.20;99.90;;;;;;5053292;28;20471;-62
2023/01/09 03:20:14;;;;;;;24.77;8.27;;;;;;;;;;5051057;28;20503;-61
2023/01/09 03:22:47;;;;;;;20.10;5.20;;;9.20;99.90;;;;;;5049184;28;20533;-62
2023/01/09 03:25:17;;;;;;;28.67;6.93;;;;;;;;;;5050682;28;20475;-62
2023/01/09 03:27:43;;;;;;;12.33;4.33;;;9.10;99.90;;;;;;5049736;28;20554;-61
2023/01/09 03:30:11;;;;;;;29.83;8.97;;;9.00;99.90;;;;;;5072050;28;20470;-61
2023/01/09 03:32:39;;;;;;;39.60;5.33;;;9.10;99.90;;;;;;5042401;28;20960;-61
2023/01/09 03:35:06;;;;;;;18.17;6.40;;;9.10;99.90;;;;;;5052756;28;21044;-61
2023/01/09 03:37:33;;;;;;;13.57;4.53;;;;;;;;;;5065348;28;20483;-61
2023/01/09 03:40:00;;;;;;;14.83;3.70;;;9.00;99.90;;;;;;5044862;28;20537;-61
2023/01/09 03:42:27;;;;;;;17.53;5.67;;;9.00;99.90;;;;;;5044122;28;20468;-61
2023/01/09 03:44:54;;;;;;;19.90;4.03;;;;;;;;;;5052944;27;20476;-61
2023/01/09 03:47:20;;;;;;;26.13;4.70;;;8.80;99.90;;;;;;5071038;27;20487;-61
2023/01/09 03:49:49;;;;;;;16.07;4.77;;;;;;;;;;5053657;27;20492;-61
2023/01/09 03:52:15;;;;;;;19.90;6.97;;;8.70;99.90;;;;;;5069905;27;20485;-61
2023/01/09 03:54:42;;;;;;;21.73;4.30;;;8.70;99.90;;;;;;5067249;28;20992;-61
2023/01/09 03:57:09;;;;;;;21.83;8.13;;;8.70;99.90;;;;;;5046274;28;21147;-62
2023/01/09 03:59:35;;;;;;;20.23;4.90;;;8.70;99.90;;;;;;5079663;28;20491;-61
2023/01/09 04:02:02;;;;;;;35.63;6.00;;;8.70;99.90;;;;;;5049667;28;21477;-61
2023/01/09 04:04:29;;;;;;;13.83;4.20;;;8.60;99.90;;;;;;5053578;28;20974;-61
2023/01/09 04:06:57;;;;;;;17.87;4.27;;;8.70;99.90;;;;;;5052980;28;20479;-61
2023/01/09 04:09:23;;;;;;;30.63;5.00;;;8.70;99.90;;;;;;5051783;28;20488;-61
2023/01/09 04:11:50;;;;;;;13.93;2.80;;;;;;;;;;5068577;28;21044;-60
2023/01/09 04:14:17;;;;;;;29.80;7.03;;;;;;;;;;5054410;28;20485;-61
2023/01/09 04:16:44;;;;;;;34.67;4.33;;;;;;;;;;5067058;28;20975;-61
2023/01/09 04:19:11;;;;;;;28.83;9.33;;;8.40;99.90;;;;;;5050284;28;20479;-61
2023/01/09 04:21:37;;;;;;;21.07;5.87;;;8.40;99.90;;;;;;5051691;28;20488;-61
2023/01/09 04:24:06;;;;;;;39.90;7.10;;;8.40;99.90;;;;;;5054741;28;20486;-61
2023/01/09 04:26:33;;;;;;;23.23;4.73;;;8.40;99.90;;;;;;5053665;28;20494;-61
2023/01/09 04:29:00;;;;;;;31.80;7.87;;;8.40;99.90;;;;;;5039925;28;20737;-60
2023/01/09 04:31:27;;;;;;;30.73;5.90;;;8.30;99.90;;;;;;5052158;28;20646;-61
2023/01/09 04:33:53;;;;;;;16.17;3.27;;;8.30;99.90;;;;;;5049152;28;20595;-61
2023/01/09 04:36:20;;;;;;;23.80;5.20;;;;;;;;;;5071962;28;20966;-61
2023/01/09 04:38:47;;;;;;;42.17;5.00;;;;;;;;;;5080682;28;20544;-61
2023/01/09 04:41:47;;;;;;;25.53;7.73;;;8.10;99.90;;;;;;5046353;28;20483;-61
2023/01/09 04:44:02;;;;;;;33.47;4.97;;;;;;;;;;5054537;28;21037;-60
2023/01/09 04:46:29;;;;;;;18.13;5.00;;;8.30;99.90;;;;;;5049776;28;20846;-61
2023/01/09 04:48:56;;;;;;;16.27;4.33;;;8.30;99.90;;;;;;5054964;28;20504;-61
2023/01/09 04:51:22;;;;;;;17.73;4.10;;;8.20;99.90;;;;;;5062349;28;20813;-61
2023/01/09 04:53:49;;;;;;;18.30;3.97;;;8.20;99.90;;;;;;5047872;28;20901;-61
2023/01/09 04:56:17;;;;;;;20.77;6.13;;;8.20;99.90;;;;;;5051565;28;20703;-61
2023/01/09 04:58:44;;;;;;;30.63;5.47;;;8.10;99.90;;;;;;5055006;28;20488;-60
2023/01/09 05:01:11;;;;;;;36.23;10.83;;;;;;;;;;5051691;28;20521;-61
2023/01/09 05:03:37;;;;;;;17.20;4.87;;;8.00;99.90;;;;;;5062926;28;20490;-60
2023/01/09 05:06:04;;;;;;;19.90;4.23;;;7.90;99.90;;;;;;5051562;28;20487;-61
2023/01/09 05:08:31;;;;;;;17.20;5.30;;;7.90;99.90;;;;;;5037650;28;20483;-61
2023/01/09 05:10:58;;;;;;;36.70;8.83;;;7.80;99.90;;;;;;5076053;28;20495;-60
2023/01/09 05:13:26;;;;;;;13.07;4.30;;;9.50;99.90;;;;;;5054211;28;20513;-60
2023/01/09 05:15:53;;;;;;;19.37;4.43;;;7.80;99.90;;;;;;5048892;28;20560;-61
2023/01/09 05:18:20;;;;;;;18.70;5.00;;;;;;;;;;5051286;28;20622;-61
2023/01/09 05:20:47;;;;;;;27.57;6.93;;;;;;;;;;5074338;28;21247;-60
2023/01/09 05:23:14;;;;;;;29.63;7.47;;;7.70;99.90;;;;;;5072290;28;20805;-61
2023/01/09 05:25:40;;;;;;;14.23;2.90;;;7.70;99.90;;;;;;5057947;28;20489;-61
2023/01/09 05:28:07;;;;;;;35.10;9.57;;;7.70;99.90;;;;;;5053867;28;20540;-61
2023/01/09 05:30:35;;;;;;;33.57;8.27;;;7.60;99.90;;;;;;5055300;28;20875;-61
2023/01/09 05:33:02;;;;;;;41.43;7.70;;;7.60;99.90;;;;;;5054580;28;20582;-61
2023/01/09 05:35:29;;;;;;;19.80;4.80;;;7.60;99.90;;;;;;5059465;28;20776;-61
2023/01/09 05:37:55;;;;;;;31.27;7.13;;;7.50;99.90;;;;;;5058049;28;20483;-60
2023/01/09 05:40:22;;;;;;;48.90;9.67;;;7.50;99.90;;;;;;5055782;28;20541;-61
2023/01/09 05:42:49;;;;;;;26.57;5.37;;;7.50;99.90;;;;;;5052909;28;20493;-60
2023/01/09 05:45:16;;;;;;;52.43;10.43;;;;;;;;;;5048346;28;20717;-60
2023/01/09 05:47:45;;;;;;;32.13;6.97;;;7.30;99.90;;;;;;5074936;28;20891;-61
2023/01/09 05:50:13;;;;;;;43.77;9.83;;;7.40;99.90;;;;;;5074854;28;20470;-61
2023/01/09 05:52:40;;;;;;;28.20;4.80;;;7.40;99.90;;;;;;5045194;28;20733;-60
2023/01/09 05:55:07;;;;;;;58.07;10.67;;;7.40;99.90;;;;;;5071699;28;21072;-60
2023/01/09 05:57:34;;;;;;;31.20;5.30;;;7.30;99.90;;;;;;5050202;28;20663;-60
2023/01/09 06:00:01;;;;;;;35.87;7.50;;;7.30;99.90;;;;;;5075281;28;20487;-60
2023/01/09 06:02:27;;;;;;;29.30;4.87;;;7.40;99.90;;;;;;5050207;28;20490;-60
2023/01/09 06:04:55;;;;;;;19.13;3.53;;;7.40;99.90;;;;;;5056332;28;20522;-60
2023/01/09 06:07:22;;;;;;;58.57;8.80;;;;;;;;;;5075044;28;21168;-60
2023/01/09 06:09:49;;;;;;;34.47;5.37;;;;;;;;;;5058019;28;20522;-60
2023/01/09 06:12:16;;;;;;;50.83;9.20;;;7.40;99.90;;;;;;5046913;28;21123;-61
2023/01/09 06:14:43;;;;;;;28.00;5.37;;;7.30;99.90;;;;;;5076236;28;20467;-60
2023/01/09 06:17:10;;;;;;;66.40;11.73;;;;;;;;;;5068506;28;20646;-60
2023/01/09 06:19:37;;;;;;;28.93;4.57;;;7.30;99.90;;;;;;5057493;28;20893;-61
2023/01/09 06:22:05;;;;;;;54.63;10.17;;;7.20;99.90;;;;;;5046327;28;20588;-60
2023/01/09 06:24:32;;;;;;;28.37;5.83;;;7.30;99.90;;;;;;5079273;28;20888;-61
2023/01/09 06:26:58;;;;;;;37.60;6.77;;;7.30;99.90;;;;;;5068924;28;20487;-61
2023/01/09 06:29:25;;;;;;;26.80;6.53;;;7.30;99.90;;;;;;5075363;28;20486;-61
2023/01/09 06:31:51;;;;;;;25.93;5.30;;;7.30;99.90;;;;;;5049937;28;20488;-61
2023/01/09 06:34:18;;;;;;;29.70;5.63;;;;;;;;;;5055560;28;20482;-61
2023/01/09 06:36:45;;;;;;;19.97;5.13;;;;;;;;;;5056770;28;20553;-61
2023/01/09 06:39:13;;;;;;;34.07;9.23;;;7.00;99.90;;;;;;5050563;28;20486;-61
2023/01/09 06:41:40;;;;;;;37.37;7.23;;;7.20;99.90;;;;;;5040968;28;20482;-61
2023/01/09 06:44:07;;;;;;;36.13;10.60;;;;;;;;;;5053274;28;20493;-61
2023/01/09 06:46:34;;;;;;;25.73;6.53;;;7.10;99.90;;;;;;5073236;28;20699;-61
2023/01/09 06:49:01;;;;;;;22.70;5.43;;;;;;;;;;5054167;28;20958;-61
2023/01/09 06:51:28;;;;;;;22.83;5.83;;;7.30;99.90;;;;;;5051292;28;20490;-61
2023/01/09 06:53:55;;;;;;;32.87;5.83;;;;;;;;;;5050301;28;20872;-61
2023/01/09 06:56:23;;;;;;;23.70;5.03;;;7.20;99.90;;;;;;5050320;28;20489;-61
2023/01/09 06:58:49;;;;;;;17.43;5.17;;;7.20;99.90;;;;;;5073012;28;20487;-61
2023/01/09 07:01:16;;;;;;;32.63;9.47;;;;;;;;;;5046238;28;20479;-62
2023/01/09 07:03:43;;;;;;;26.00;4.60;;;;;;;;;;5053409;28;20482;-61
2023/01/09 07:06:10;;;;;;;39.87;10.60;;;7.20;99.90;;;;;;5052850;28;20483;-62
2023/01/09 07:08:37;;;;;;;25.47;5.57;;;7.10;99.90;;;;;;5054849;28;20491;-61
2023/01/09 07:11:04;;;;;;;27.30;7.80;;;7.00;99.90;;;;;;5072968;28;20481;-61
2023/01/09 07:13:32;;;;;;;37.80;9.53;;;7.10;99.90;;;;;;5056867;28;20505;-62
2023/01/09 07:15:58;;;;;;;31.13;6.93;;;6.20;99.90;;;;;;5055482;28;20856;-61
2023/01/09 07:18:25;;;;;;;23.63;4.17;;;;;;;;;;5055536;28;20475;-61
2023/01/09 07:20:52;;;;;;;41.00;8.50;;;;;;;;;;5051893;28;20492;-61
2023/01/09 07:23:19;;;;;;;24.70;6.73;;;7.10;99.90;;;;;;5055702;28;20502;-61
2023/01/09 07:25:46;;;;;;;20.93;4.20;;;7.10;99.90;;;;;;5055939;28;20471;-60
2023/01/09 07:28:13;;;;;;;26.57;7.00;;;7.10;99.90;;;;;;5055461;28;20482;-60
2023/01/09 07:30:41;;;;;;;38.50;9.10;;;7.00;99.90;;;;;;5052448;28;20901;-60
2023/01/09 07:33:08;;;;;;;45.90;9.83;;;;;;;;;;5052863;28;20479;-61
2023/01/09 07:35:35;;;;;;;30.23;7.20;;;;;;;;;;5050395;28;20529;-61
2023/01/09 07:38:02;;;;;;;30.93;7.07;;;7.10;99.90;;;;;;5046443;28;21095;-61
2023/01/09 07:40:28;;;;;;;28.60;6.43;;;7.10;99.90;;;;;;5052342;28;20865;-61
2023/01/09 07:42:55;;;;;;;35.03;8.83;;;7.10;99.90;;;;;;5073085;28;20484;-61
2023/01/09 07:45:22;;;;;;;24.27;6.90;;;7.20;99.90;;;;;;5055150;28;20518;-61
2023/01/09 07:47:51;;;;;;;21.83;4.93;;;;;;;;;;5055966;28;20471;-61
2023/01/09 07:50:18;;;;;;;24.30;5.87;;;7.10;99.90;;;;;;5046718;28;20845;-61
2023/01/09 07:52:46;;;;;;;21.73;5.03;;;7.30;99.90;;;;;;5059379;28;20493;-61
2023/01/09 07:55:13;;;;;;;35.37;7.83;;;7.30;99.90;;;;;;5064951;28;20489;-61
2023/01/09 07:57:40;;;;;;;15.80;3.80;;;7.40;99.90;;;;;;5067938;28;20503;-60
2023/01/09 08:00:09;;;;;;;43.63;11.20;;;6.10;99.90;;;;;;5066869;28;20487;-61
2023/01/09 08:02:37;;;;;;;25.70;5.10;;;;;;;;;;5046826;28;20968;-61
2023/01/09 08:05:07;;;;;;;26.17;7.50;;;8.80;99.90;;;;;;5048509;28;20483;-61
2023/01/09 08:07:34;;;;;;;22.33;4.90;;;7.40;99.90;;;;;;5056125;28;20490;-61
2023/01/09 08:10:00;;;;;;;30.50;7.23;;;7.30;99.90;;;;;;5074034;28;20582;-61
2023/01/09 08:12:27;;;;;;;18.23;5.97;;;7.20;99.90;;;;;;5051442;28;20498;-61
2023/01/09 08:14:54;;;;;;;21.80;5.47;;;7.30;99.90;;;;;;5054363;28;20471;-61
2023/01/09 08:17:21;;;;;;;33.90;5.77;;;;;;;;;;5050134;28;20783;-61
2023/01/09 08:19:48;;;;;;;22.13;4.60;;;7.20;99.90;;;;;;5055101;28;20495;-60
2023/01/09 08:22:16;;;;;;;24.77;8.00;;;7.30;99.90;;;;;;5047808;28;20491;-61
2023/01/09 08:24:42;;;;;;;26.33;5.03;;;7.40;99.90;;;;;;5072122;28;20477;-61
2023/01/09 08:27:09;;;;;;;33.47;7.60;;;7.30;99.90;;;;;;5058361;28;20476;-61
2023/01/09 08:29:36;;;;;;;26.60;5.83;;;7.40;99.90;;;;;;5054077;28;20995;-61
2023/01/09 08:32:03;;;;;;;28.23;5.43;;;;;;;;;;5048771;28;20480;-61
2023/01/09 08:34:31;;;;;;;28.83;5.90;;;;;;;;;;5052811;28;20490;-60
2023/01/09 08:36:58;;;;;;;30.43;6.10;;;7.40;99.90;;;;;;5052183;28;20570;-61
2023/01/09 08:39:26;;;;;;;26.23;6.43;;;;;;;;;;5037655;28;20649;-61
2023/01/09 08:47:32;;;;;;;25.27;6.63;;;;;;;;;;5004660;28;21008;-61
2023/01/09 08:49:59;;;;;;;32.33;7.00;;;;;;;;;;5062670;28;20767;-61
2023/01/09 08:52:28;;;;;;;33.13;6.10;;;7.60;99.90;;;;;;5064583;28;20481;-61
2023/01/09 08:54:57;;;;;;;15.33;3.40;;;;;;;;;;5046147;28;20566;-61
2023/01/09 08:57:24;;;;;;;20.20;5.30;;;7.60;99.90;;;;;;5065249;28;20826;-61
2023/01/09 08:59:51;;;;;;;21.13;5.20;;;;;;;;;;5046694;28;20508;-61
2023/01/09 09:02:17;;;;;;;33.73;6.70;;;7.60;99.90;;;;;;5064006;28;20490;-61
2023/01/09 09:04:45;;;;;;;18.87;5.10;;;7.70;99.90;;;;;;5069182;28;20481;-61
2023/01/09 09:07:12;;;;;;;33.83;8.33;;;;;;;;;;5073664;28;20483;-61
2023/01/09 09:09:38;;;;;;;44.60;6.10;;;7.70;99.90;;;;;;5047502;28;20493;-61
2023/01/09 09:12:07;;;;;;;34.63;9.27;;;;;;;;;;5059754;28;21022;-60
2023/01/09 09:17:18;;;;;;;37.67;7.67;;;7.50;99.90;;;;;;5064213;28;20554;-60
2023/01/09 09:19:45;;;;;;;21.33;5.70;;;7.50;99.90;;;;;;5058577;28;20496;-61
2023/01/09 09:22:11;;;;;;;41.60;9.77;;;7.70;99.90;;;;;;5078556;28;20481;-60
2023/01/09 09:24:38;;;;;;;23.27;4.13;;;7.80;99.90;;;;;;5057441;28;20542;-61
2023/01/09 09:27:06;;;;;;;38.53;9.10;;;7.60;99.90;;;;;;5080952;28;20916;-61
2023/01/09 09:29:33;;;;;;;18.07;4.53;;;7.60;99.90;;;;;;5047527;28;20517;-61
2023/01/09 09:32:00;;;;;;;39.13;8.37;;;7.70;99.90;;;;;;5062136;28;20486;-61
2023/01/09 09:34:27;;;;;;;25.63;4.70;;;;;;;;;;5055292;28;21723;-61
2023/01/09 09:36:54;;;;;;;23.17;5.90;;;7.90;99.90;;;;;;5055871;28;20473;-60
2023/01/09 09:39:20;;;;;;;31.30;6.20;;;7.90;99.90;;;;;;5071659;28;20475;-61
2023/01/09 09:45:13;;;;;;;20.97;5.07;;;7.90;99.90;;;;;;5038530;28;21068;-61
2023/01/09 09:47:47;;;;;;;27.10;4.30;;;7.90;99.90;;;;;;5051559;28;20865;-61
2023/01/09 09:50:55;;;;;;;37.43;9.07;;;7.90;99.90;;;;;;5043193;28;20473;-61
2023/01/09 09:53:27;;;;;;;27.23;5.90;;;8.10;99.90;;;;;;5075302;28;20473;-61
2023/01/09 09:55:56;;;;;;;17.73;3.27;;;8.20;99.90;;;;;;5038301;28;20545;-60
2023/01/09 09:58:26;;;;;;;15.23;3.60;;;;;;;;;;5066305;28;20482;-61
2023/01/09 10:00:55;;;;;;;24.23;7.77;;;8.60;99.90;;;;;;5071484;28;20486;-60
2023/01/09 10:03:29;;;;;;;27.17;5.87;;;8.80;99.90;;;;;;5052441;28;20496;-60
2023/01/09 10:05:58;;;;;;;20.23;4.90;;;8.90;99.90;;;;;;5077709;28;20484;-61
2023/01/09 10:08:30;;;;;;;26.17;5.00;;;;;;;;;;5052141;28;20472;-61
2023/01/09 10:10:57;;;;;;;33.07;7.70;;;8.70;99.90;;;;;;5035753;28;20471;-60
2023/01/09 10:16:24;;;;;;;44.33;9.70;;;8.50;99.90;;;;;;5041514;28;20498;-60
2023/01/09 10:19:01;;;;;;;18.10;4.10;;;8.60;99.90;;;;;;5051534;28;20995;-60
2023/01/09 10:21:38;;;;;;;21.33;4.20;;;8.50;99.90;;;;;;5052827;28;20498;-61
2023/01/09 10:24:11;;;;;;;49.37;10.87;;;;;;;;;;5039509;28;20489;-60
2023/01/09 10:26:42;;;;;;;32.83;4.83;;;8.50;99.90;;;;;;5045406;28;22877;-61
2023/01/09 10:29:21;;;;;;;56.90;10.43;;;8.50;99.90;;;;;;5040623;28;20741;-60
2023/01/09 10:32:02;;;;;;;26.73;4.07;;;8.50;99.90;;;;;;5029707;28;21039;-60
2023/01/09 10:34:38;;;;;;;36.47;6.50;;;10.80;99.90;;;;;;5043942;28;20483;-60
2023/01/09 10:37:09;;;;;;;58.07;11.07;;;8.80;99.90;;;;;;5053311;28;20486;-60
2023/01/09 10:39:41;;;;;;;20.53;3.93;;;8.80;99.90;;;;;;5075129;28;20891;-61
2023/01/09 10:42:11;;;;;;;41.63;8.17;;;;;;;;;;5046767;28;20494;-61
2023/01/09 10:44:43;;;;;;;29.50;5.17;;;8.90;99.90;;;;;;5056818;28;20479;-61
2023/01/09 10:47:18;;;;;;;54.00;11.23;;;9.00;99.90;;;;;;5064665;28;20492;-61
2023/01/09 10:49:47;;;;;;;26.70;5.43;;;8.90;99.90;;;;;;5047216;28;20484;-61
2023/01/09 10:52:17;;;;;;;43.50;8.57;;;9.00;99.90;;;;;;5059210;28;20486;-61
2023/01/09 10:54:55;;;;;;;41.37;7.20;;;8.80;99.90;;;;;;5049871;28;20490;-61
2023/01/09 10:57:41;;;;;;;31.37;5.97;;;8.90;99.90;;;;;;5042357;28;20477;-61
2023/01/09 11:00:16;;;;;;;67.87;12.57;;;7.90;99.90;;;;;;5070260;28;20732;-61
2023/01/09 11:02:44;;;;;;;41.40;6.53;;;9.10;99.90;;;;;;5061495;28;20816;-61
2023/01/09 11:05:14;;;;;;;56.53;8.53;;;9.30;99.90;;;;;;5069172;28;20941;-61
2023/01/09 11:07:44;;;;;;;29.67;5.17;;;;;;;;;;5054599;28;20471;-61
2023/01/09 11:10:13;;;;;;;71.70;13.13;;;9.40;99.90;;;;;;5037467;28;20557;-61
2023/01/09 11:12:40;;;;;;;27.63;5.47;;;9.60;99.90;;;;;;5043998;28;21271;-61
2023/01/09 11:15:32;;;;;;;29.40;6.43;;;;;;;;;;5050133;28;20870;-61
2023/01/09 11:18:23;;;;;;;39.63;8.33;;;;;;;;;;5068335;28;20484;-61
2023/01/09 11:20:50;;;;;;;39.00;8.53;;;9.60;99.90;;;;;;5046762;28;20806;-61
2023/01/09 11:23:29;;;;;;;57.43;11.43;;;9.50;99.90;;;;;;5074069;28;20490;-61
2023/01/09 11:25:57;;;;;;;20.97;4.20;;;9.50;99.90;;;;;;5051994;28;20497;-61
2023/01/09 11:28:24;;;;;;;29.97;4.80;;;9.40;99.90;;;;;;5058502;28;20567;-61
2023/01/09 11:30:53;;;;;;;29.73;6.90;;;9.30;99.90;;;;;;5057475;28;20482;-61
2023/01/09 11:33:24;;;;;;;46.37;8.43;;;;;;;;;;5068285;28;20571;-61
2023/01/09 11:36:09;;;;;;;35.90;5.77;;;;;;;;;;5056326;28;20560;-60
2023/01/09 11:38:49;;;;;;;29.30;4.70;;;8.70;99.90;;;;;;5062539;28;20481;-61
2023/01/09 11:41:17;;;;;;;33.30;9.03;;;;;;;;;;5061828;28;20504;-61
2023/01/09 11:43:45;;;;;;;23.80;5.27;;;;;;;;;;5071583;28;20500;-61
2023/01/09 11:46:32;;;;;;;30.60;6.50;;;8.40;99.90;;;;;;5060255;28;20479;-61
2023/01/09 11:49:01;;;;;;;15.43;4.73;;;8.30;99.90;;;;;;5041978;28;20489;-61
2023/01/09 11:51:29;;;;;;;25.80;3.80;;;;;;;;;;5062079;28;20708;-61
2023/01/09 11:54:17;;;;;;;20.63;4.37;;;8.40;99.90;;;;;;5068082;28;20977;-61
2023/01/09 11:56:46;;;;;;;17.83;3.87;;;6.50;99.90;;;;;;5053240;28;21003;-61
2023/01/09 11:59:14;;;;;;;20.27;7.63;;;8.90;99.90;;;;;;5043287;28;20490;-60
2023/01/09 12:01:49;;;;;;;14.90;3.13;;;;;;;;;;5049563;28;20490;-61
2023/01/09 12:04:27;;;;;;;22.33;6.90;;;9.00;99.90;;;;;;5049602;28;20479;-61
2023/01/09 12:07:12;;;;;;;11.97;2.77;;;9.10;99.90;;;;;;5070376;28;20474;-60
2023/01/09 12:09:46;;;;;;;21.20;4.57;;;9.20;99.90;;;;;;5058911;28;20479;-61
2023/01/09 12:12:23;;;;;;;19.63;7.50;;;9.30;99.90;;;;;;5059449;28;21092;-61
2023/01/09 12:14:58;;;;;;;34.10;5.70;;;;;;;;;;5047958;28;20483;-61
2023/01/09 12:17:46;;;;;;;28.67;5.47;;;9.70;99.90;;;;;;5067004;28;20461;-61
2023/01/09 12:20:33;;;;;;;51.93;10.03;;;9.60;99.90;;;;;;5056632;28;20556;-61
2023/01/09 12:23:14;;;;;;;29.03;5.40;;;9.60;99.90;;;;;;5065420;28;20844;-61
2023/01/09 12:25:45;;;;;;;28.20;5.63;;;;;;;;;;5047979;28;20498;-61
2023/01/09 12:28:30;;;;;;;40.10;8.50;;;9.40;99.90;;;;;;5067134;28;20481;-61
2023/01/09 12:31:11;;;;;;;31.83;6.50;;;9.30;99.90;;;;;;5068818;28;20481;-62
2023/01/09 12:33:47;;;;;;;26.33;5.37;;;9.20;99.90;;;;;;5063829;28;20498;-61
2023/01/09 12:36:23;;;;;;;36.43;8.80;;;9.20;99.90;;;;;;5055591;28;21006;-61
2023/01/09 12:38:55;;;;;;;23.80;5.67;;;9.20;99.90;;;;;;5048364;28;21053;-61
2023/01/09 12:41:41;;;;;;;33.60;6.40;;;;;;;;;;5060915;28;20511;-61
2023/01/09 12:44:44;;;;;;;55.07;13.77;;;7.70;99.90;;;;;;5051645;28;20938;-61
2023/01/09 12:47:32;;;;;;;40.60;8.00;;;9.00;99.90;;;;;;5045116;28;21007;-60
2023/01/09 12:50:09;;;;;;;26.60;5.17;;;7.00;99.90;;;;;;5061266;28;20829;-61
2023/01/09 12:52:39;;;;;;;28.00;6.23;;;;;;;;;;5054647;28;20841;-61
2023/01/09 12:55:13;;;;;;;23.97;6.07;;;;;;;;;;5055009;28;20879;-61
2023/01/09 12:57:43;;;;;;;18.77;2.77;;;8.50;99.90;;;;;;5050061;28;20479;-61
2023/01/09 13:00:18;;;;;;;30.67;9.67;;;;;;;;;;5048023;28;20478;-62
2023/01/09 13:02:47;;;;;;;30.67;5.10;;;8.90;99.90;;;;;;5040767;28;20485;-62
2023/01/09 13:05:17;;;;;;;30.27;9.03;;;;;;;;;;5053220;28;20482;-61
2023/01/09 13:07:51;;;;;;;25.17;4.43;;;9.40;99.90;;;;;;5050374;28;20496;-62
2023/01/09 13:10:22;;;;;;;28.40;6.27;;;9.60;99.90;;;;;;5058285;28;20875;-62
2023/01/09 13:12:49;;;;;;;27.37;4.27;;;;;;;;;;5055634;28;20546;-61
2023/01/09 13:15:27;;;;;;;29.37;7.50;;;9.50;99.90;;;;;;5060752;28;21184;-62
2023/01/09 13:17:58;;;;;;;19.87;5.13;;;9.20;99.90;;;;;;5072164;28;20494;-62
2023/01/09 13:20:29;;;;;;;34.27;7.63;;;;;;;;;;5057528;28;20506;-61
2023/01/09 13:22:59;;;;;;;23.00;5.17;;;8.80;99.90;;;;;;5053014;28;21082;-60
2023/01/09 13:25:37;;;;;;;28.47;6.03;;;8.60;99.90;;;;;;5073253;28;20475;-60
2023/01/09 13:28:08;;;;;;;43.03;9.17;;;8.60;99.90;;;;;;5057643;28;20882;-61
2023/01/09 13:31:05;;;;;;;27.50;6.03;;;8.50;99.90;;;;;;5056757;28;20487;-61
2023/01/09 13:33:35;;;;;;;29.20;5.30;;;8.50;99.90;;;;;;5055789;28;20874;-61
2023/01/09 13:36:02;;;;;;;36.13;7.27;;;8.60;99.90;;;;;;5055809;28;20483;-61
2023/01/09 13:38:32;;;;;;;37.57;5.10;;;8.60;99.90;;;;;;5058953;28;20599;-62
2023/01/09 13:43:56;;;;;;;37.43;5.40;;;8.80;99.90;;;;;;5046878;28;20524;-61
2023/01/09 13:46:31;;;;;;;30.33;5.97;;;8.60;99.90;;;;;;5055562;28;20995;-61